Gainesville, MO (65655)

2:53 PM CDT on July 01, 2015 (GMT -0500)
County Road 15 | | Change Station
CLOSE
Current Station
Personal Weather Station
Location: Mountain Home, AR
Elevation: 984 ft
Nearby Weather Stations

Elev 984 ft 36.42 °N, 92.47 °W | Updated 22 minutes ago

Partly Cloudy
Partly Cloudy
80.4 °F
Feels Like 86 °F
N
0.0
Wind Variable Wind from SW
Gusts 4.0 mph

Today
High -- | Low -- °F
--% Chance of Precip.
Yesterday
High -- | Low -- °F
Precip. -- in
5:54 AM 8:32 PM
Full, 100% visible
Pressure 29.94 in
Visibility 9.0 miles
Clouds Clear
Heat Index 86 °F
Dew Point 75 °F
Humidity 83%
Rainfall 0.12 in
Snow Depth Not available.
UV 12 out of 12
Pollen .50 out of 12
Air Quality Not available.
Flu Activity Not available.
METAR KBPK 011853Z AUTO 18009KT 9SM CLR 26/22 A2996 RMK AO2 SLP136 T02560217 PNO

More Conditions Fewer Conditions

Pressure 29.94 in
Visibility 9.0 miles
Clouds Clear
Heat Index 86 °F
Dew Point 75 °F
Humidity 83%
Rainfall 0.12 in
Snow Depth Not available.
UV 12 out of 12
Pollen .50 out of 12
Air Quality Not available.
Flu Activity Not available.
METAR KBPK 011853Z AUTO 18009KT 9SM CLR 26/22 A2996 RMK AO2 SLP136 T02560217 PNO

More Conditions Fewer Conditions

10-Day Weather Forecast

×

Almanac

Astronomy

Jul. 01, 2015 Rise Set
Actual Time
Civil Twilight
Nautical Twilight
Astronomical Twilight
Moon
Length of Visible Light
Length of Day
Tomorrow will be .
, % of the Moon is Illuminated

Today's Extremes

State Highs State Lows

Community

WunderPhotos

Upload Photos

1,834,261 photos uploaded!

WunderBlogs® & News

Nearby

Air Quality

  Air Quality AQ Index Pollutant
Not available.

Snow Depth

Station Depth Elevation

Earthquake Activity

City Distance Mag. Time & Date
Minimum magnitude displayed is 2.5.

Coastal Water Temperatures

Place Temperature

Stations

Nearby Weather Stations

Station Location Temp. Windchill Dew Point Humidity Wind Precip. Elev Updated Type